createdAt,value
2023-04-04T00:01:47.838Z,10.60
2023-04-04T00:04:24.083Z,12.40
2023-04-04T00:07:16.478Z,12.20
2023-04-04T00:09:59.293Z,12.20
2023-04-04T00:12:30.022Z,12.80
2023-04-04T00:15:07.511Z,14.30
2023-04-04T00:18:14.898Z,14.10
2023-04-04T00:20:52.963Z,13.70
2023-04-04T00:23:42.471Z,14.90
2023-04-04T00:26:26.041Z,11.10
2023-04-04T00:32:24.063Z,11.50
2023-04-04T00:34:55.121Z,14.40
2023-04-04T00:37:29.965Z,14.20
2023-04-04T00:40:00.890Z,14.00
2023-04-04T00:42:31.056Z,13.20
2023-04-04T00:45:07.793Z,12.90
2023-04-04T00:47:38.374Z,10.80
2023-04-04T00:50:14.278Z,10.80
2023-04-04T00:52:55.509Z,9.80
2023-04-04T00:56:01.434Z,11.20
2023-04-04T00:58:35.267Z,12.10
2023-04-04T01:01:18.722Z,10.50
2023-04-04T01:03:51.770Z,11.60
2023-04-04T01:06:26.696Z,11.90
2023-04-04T01:09:04.314Z,11.90
2023-04-04T01:11:50.425Z,13.00
2023-04-04T01:14:36.140Z,12.80
2023-04-04T01:17:07.429Z,12.70
2023-04-04T01:20:11.818Z,13.10
2023-04-04T01:22:53.278Z,11.00
2023-04-04T01:25:33.030Z,10.00
2023-04-04T01:28:07.714Z,8.00
2023-04-04T01:30:45.014Z,8.80
2023-04-04T01:33:28.427Z,8.50
2023-04-04T01:36:15.658Z,6.80
2023-04-04T01:39:09.414Z,7.60
2023-04-04T01:41:42.958Z,7.00
2023-04-04T01:44:19.552Z,6.10
2023-04-04T01:46:58.168Z,6.60
2023-04-04T01:49:31.463Z,6.60
2023-04-04T01:52:12.511Z,6.00
2023-04-04T01:54:45.029Z,6.10
2023-04-04T01:57:20.174Z,5.70
2023-04-04T01:59:53.009Z,5.40
2023-04-04T02:02:26.046Z,4.90
2023-04-04T02:05:00.654Z,5.00
2023-04-04T02:07:33.148Z,5.00
2023-04-04T02:10:04.618Z,4.60
2023-04-04T02:12:37.445Z,5.00
2023-04-04T02:15:08.178Z,3.60
2023-04-04T02:17:38.225Z,3.90
2023-04-04T02:20:11.387Z,3.70
2023-04-04T02:22:42.080Z,4.50
2023-04-04T02:25:12.868Z,3.80
2023-04-04T02:27:43.147Z,4.60
2023-04-04T02:30:14.061Z,6.00
2023-04-04T02:32:47.772Z,6.20
2023-04-04T02:35:20.341Z,6.00
2023-04-04T02:37:50.335Z,6.10
2023-04-04T02:40:29.785Z,7.10
2023-04-04T02:43:02.368Z,7.30
2023-04-04T02:45:35.583Z,6.40
2023-04-04T02:48:15.780Z,8.50
2023-04-04T02:50:56.125Z,6.60
2023-04-04T02:53:26.241Z,6.30
2023-04-04T02:55:58.988Z,6.20
2023-04-04T02:58:29.433Z,5.80
2023-04-04T03:01:02.034Z,5.80
2023-04-04T03:03:33.587Z,6.40
2023-04-04T03:06:05.732Z,5.70
2023-04-04T03:08:38.105Z,6.30
2023-04-04T03:11:23.000Z,6.00
2023-04-04T03:13:55.795Z,6.70
2023-04-04T03:16:33.239Z,7.40
2023-04-04T03:19:04.620Z,6.50
2023-04-04T03:21:34.735Z,6.50
2023-04-04T03:24:08.790Z,7.50
2023-04-04T03:26:42.797Z,6.00
2023-04-04T03:29:27.392Z,6.90
2023-04-04T03:31:57.587Z,7.00
2023-04-04T03:34:32.239Z,6.40
2023-04-04T03:37:05.180Z,5.30
2023-04-04T03:39:37.838Z,4.90
2023-04-04T03:42:10.363Z,4.20
2023-04-04T03:47:26.283Z,5.20
2023-04-04T03:50:01.628Z,5.60
2023-04-04T03:52:42.191Z,6.80
2023-04-04T03:55:12.297Z,6.80
2023-04-04T03:57:52.435Z,8.00
2023-04-04T04:00:23.794Z,8.10
2023-04-04T04:02:59.940Z,7.80
2023-04-04T04:05:32.980Z,8.30
2023-04-04T04:08:11.997Z,6.50
2023-04-04T04:10:42.305Z,7.10
2023-04-04T04:13:18.275Z,5.80
2023-04-04T04:15:48.423Z,6.50
2023-04-04T04:18:28.127Z,9.70
2023-04-04T04:21:03.108Z,8.90
2023-04-04T04:23:38.578Z,9.00
2023-04-04T04:26:09.088Z,7.40
2023-04-04T04:28:40.343Z,7.90
2023-04-04T04:31:14.373Z,8.10
2023-04-04T04:33:50.607Z,7.10
2023-04-04T04:36:24.475Z,8.10
2023-04-04T04:39:04.430Z,7.00
2023-04-04T04:41:37.241Z,7.40
2023-04-04T04:44:15.566Z,8.30
2023-04-04T04:46:51.355Z,8.20
2023-04-04T04:49:22.188Z,8.50
2023-04-04T04:51:54.169Z,7.60
2023-04-04T04:54:30.163Z,6.20
2023-04-04T04:57:08.418Z,6.60
2023-04-04T04:59:50.714Z,8.10
2023-04-04T05:02:26.876Z,8.70
2023-04-04T05:05:05.757Z,12.00
2023-04-04T05:07:39.243Z,11.30
2023-04-04T05:10:13.395Z,10.40
2023-04-04T05:12:48.870Z,11.10
2023-04-04T05:15:33.473Z,12.10
2023-04-04T05:18:12.632Z,11.60
2023-04-04T05:20:43.831Z,10.70
2023-04-04T05:23:26.811Z,10.90
2023-04-04T05:25:57.732Z,16.10
2023-04-04T05:28:34.137Z,7.80
2023-04-04T05:31:10.895Z,6.60
2023-04-04T05:33:47.334Z,5.80
2023-04-04T05:36:32.362Z,6.50
2023-04-04T05:39:15.851Z,5.20
2023-04-04T05:41:57.611Z,4.50
2023-04-04T05:44:37.581Z,5.90
2023-04-04T05:47:10.910Z,5.50
2023-04-04T05:49:43.863Z,6.30
2023-04-04T05:52:18.037Z,4.30
2023-04-04T05:55:04.783Z,5.20
2023-04-04T05:57:51.333Z,4.60
2023-04-04T06:00:25.915Z,4.20
2023-04-04T06:03:05.254Z,5.20
2023-04-04T06:05:39.054Z,4.00
2023-04-04T06:08:21.701Z,4.30
2023-04-04T06:10:57.484Z,4.60
2023-04-04T06:13:32.022Z,3.90
2023-04-04T06:16:13.188Z,4.80
2023-04-04T06:18:43.610Z,4.20
2023-04-04T06:21:19.911Z,5.40
2023-04-04T06:23:53.460Z,4.30
2023-04-04T06:26:27.546Z,4.40
2023-04-04T06:29:05.619Z,5.50
2023-04-04T06:31:42.046Z,6.90
2023-04-04T06:34:32.675Z,5.20
2023-04-04T06:37:04.326Z,4.40
2023-04-04T06:39:39.932Z,4.50
2023-04-04T06:42:13.566Z,3.70
2023-04-04T06:44:49.229Z,3.90
2023-04-04T06:47:18.668Z,3.70
2023-04-04T06:49:48.272Z,4.90
2023-04-04T06:52:17.751Z,4.00
2023-04-04T06:54:47.334Z,4.50
2023-04-04T06:57:20.789Z,4.20
2023-04-04T06:59:54.124Z,4.40
2023-04-04T07:02:24.731Z,5.20
2023-04-04T07:04:55.508Z,4.80
2023-04-04T07:07:27.537Z,4.20
2023-04-04T07:09:57.256Z,3.60
2023-04-04T07:12:30.714Z,4.00
2023-04-04T07:15:07.214Z,3.70
2023-04-04T07:17:42.778Z,4.40
2023-04-04T07:20:15.106Z,3.90
2023-04-04T07:22:45.105Z,8.50
2023-04-04T07:25:21.526Z,6.30
2023-04-04T07:28:02.367Z,4.10
2023-04-04T07:30:40.314Z,3.60
2023-04-04T07:33:18.437Z,3.60
2023-04-04T07:35:52.407Z,3.20
2023-04-04T07:38:27.936Z,3.20
2023-04-04T07:41:03.722Z,3.00
2023-04-04T07:43:34.504Z,3.20
2023-04-04T07:46:06.840Z,3.10
2023-04-04T07:48:37.235Z,3.20
2023-04-04T07:51:07.068Z,5.00
2023-04-04T07:53:39.751Z,4.10
2023-04-04T07:56:09.903Z,4.20
2023-04-04T07:58:41.096Z,6.30
2023-04-04T08:01:10.970Z,7.50
2023-04-04T08:03:41.073Z,3.50
2023-04-04T08:06:11.645Z,4.80
2023-04-04T08:08:48.481Z,5.00
2023-04-04T08:11:19.028Z,4.30
2023-04-04T08:13:48.739Z,4.20
2023-04-04T08:16:18.719Z,4.90
2023-04-04T08:18:49.079Z,4.00
2023-04-04T08:21:19.451Z,7.70
2023-04-04T08:23:50.568Z,4.90
2023-04-04T08:26:20.234Z,4.80
2023-04-04T08:28:52.367Z,5.20
2023-04-04T08:31:23.922Z,6.10
2023-04-04T08:33:53.421Z,6.10
2023-04-04T08:36:23.425Z,5.00
2023-04-04T08:39:03.083Z,5.10
2023-04-04T08:41:46.059Z,4.70
2023-04-04T08:44:22.468Z,5.20
2023-04-04T08:46:53.256Z,5.40
2023-04-04T08:49:26.127Z,4.50
2023-04-04T08:52:00.100Z,3.40
2023-04-04T08:54:32.625Z,4.40
2023-04-04T08:57:04.401Z,5.30
2023-04-04T08:59:35.480Z,4.40
2023-04-04T09:02:11.482Z,3.70
2023-04-04T09:05:05.017Z,3.50
2023-04-04T09:07:46.519Z,3.70
2023-04-04T09:10:18.326Z,3.20
2023-04-04T09:12:55.509Z,4.00
2023-04-04T09:15:28.563Z,4.70
2023-04-04T09:18:06.780Z,4.20
2023-04-04T09:20:58.522Z,3.90
2023-04-04T09:24:03.712Z,4.60
2023-04-04T09:26:58.372Z,3.70
2023-04-04T09:29:28.392Z,3.60
2023-04-04T09:31:59.057Z,7.50
2023-04-04T09:34:31.213Z,7.40
2023-04-04T09:37:03.410Z,4.00
2023-04-04T09:39:35.800Z,3.40
2023-04-04T09:42:08.146Z,3.60
2023-04-04T09:44:40.054Z,7.20
2023-04-04T09:47:31.864Z,2.90
2023-04-04T09:50:07.496Z,4.80
2023-04-04T09:52:40.974Z,7.20
2023-04-04T09:55:11.822Z,3.60
2023-04-04T09:57:42.790Z,3.40
2023-04-04T10:00:20.565Z,3.90
2023-04-04T10:02:53.813Z,3.20
2023-04-04T10:05:24.647Z,2.80
2023-04-04T10:07:55.222Z,3.10
2023-04-04T10:10:34.794Z,3.60
2023-04-04T10:13:05.419Z,3.80
2023-04-04T10:15:38.930Z,4.30
2023-04-04T10:18:10.470Z,3.20
2023-04-04T10:20:41.647Z,4.30
2023-04-04T10:23:16.103Z,3.20
2023-04-04T10:25:49.831Z,15.10
2023-04-04T10:28:23.959Z,5.40
2023-04-04T10:31:06.990Z,4.10
2023-04-04T10:34:19.521Z,4.80
2023-04-04T10:37:03.739Z,6.20
2023-04-04T10:39:42.938Z,3.40
2023-04-04T10:42:18.822Z,4.70
2023-04-04T10:44:49.078Z,5.30
2023-04-04T10:47:27.401Z,3.20
2023-04-04T10:50:09.460Z,4.30
2023-04-04T10:52:45.112Z,4.60
2023-04-04T10:55:17.450Z,4.60
2023-04-04T10:57:52.980Z,4.50
2023-04-04T11:00:26.428Z,4.00
2023-04-04T11:03:01.455Z,6.90
2023-04-04T11:05:33.275Z,4.30
2023-04-04T11:08:09.912Z,5.10
2023-04-04T11:10:47.702Z,3.90
2023-04-04T11:13:36.173Z,3.50
2023-04-04T11:16:17.777Z,5.20
2023-04-04T11:21:30.562Z,11.60
2023-04-04T11:24:06.031Z,7.00
2023-04-04T11:26:37.268Z,5.10
2023-04-04T11:29:16.210Z,4.10
2023-04-04T11:31:46.370Z,3.70
2023-04-04T11:34:37.966Z,3.90
2023-04-04T11:37:20.486Z,3.30
2023-04-04T11:39:57.136Z,4.00
2023-04-04T11:42:39.016Z,3.20
2023-04-04T11:45:16.724Z,3.30
2023-04-04T11:47:50.775Z,4.60
2023-04-04T11:50:22.022Z,3.50
2023-04-04T11:52:56.399Z,3.00
2023-04-04T11:55:27.206Z,3.30
2023-04-04T11:57:59.877Z,3.40
2023-04-04T12:00:43.141Z,4.80
2023-04-04T12:03:19.047Z,3.90
2023-04-04T12:05:50.261Z,5.30
2023-04-04T12:08:20.454Z,4.70
2023-04-04T12:10:52.446Z,4.60
2023-04-04T12:13:34.108Z,4.50
2023-04-04T12:16:04.440Z,4.00
2023-04-04T12:18:34.706Z,3.50
2023-04-04T12:21:07.971Z,2.90
2023-04-04T12:23:40.861Z,4.00
2023-04-04T12:26:14.810Z,3.80
2023-04-04T12:28:49.055Z,5.00
2023-04-04T12:31:21.520Z,4.60
2023-04-04T12:33:52.253Z,5.30
2023-04-04T12:36:30.838Z,4.00
2023-04-04T12:39:12.655Z,4.00
2023-04-04T12:42:01.009Z,4.80
2023-04-04T12:44:45.596Z,6.00
2023-04-04T12:47:24.693Z,3.30
2023-04-04T12:49:56.288Z,3.50
2023-04-04T12:52:35.784Z,3.50
2023-04-04T12:55:12.241Z,6.50
2023-04-04T12:57:45.975Z,5.10
2023-04-04T13:00:20.559Z,4.30
2023-04-04T13:02:55.945Z,4.60
2023-04-04T13:05:26.470Z,3.50
2023-04-04T13:08:14.586Z,5.00
2023-04-04T13:11:07.087Z,4.40
2023-04-04T13:13:44.321Z,4.00
2023-04-04T13:16:34.741Z,5.60
2023-04-04T13:21:45.680Z,4.40
2023-04-04T13:24:16.246Z,6.20
2023-04-04T13:26:50.878Z,4.10
2023-04-04T13:29:28.332Z,4.60
2023-04-04T13:32:05.218Z,4.50
2023-04-04T13:34:44.149Z,4.50
2023-04-04T13:37:30.127Z,4.60
2023-04-04T13:40:03.852Z,5.20
2023-04-04T13:42:34.445Z,5.00
2023-04-04T13:45:07.130Z,5.60
2023-04-04T13:47:46.955Z,5.20
2023-04-04T13:50:24.179Z,6.20
2023-04-04T13:53:00.031Z,7.00
2023-04-04T13:56:18.323Z,7.80
2023-04-04T13:59:32.729Z,8.50
2023-04-04T14:02:16.502Z,5.50
2023-04-04T14:04:49.821Z,5.10
2023-04-04T14:07:24.204Z,7.10
2023-04-04T14:09:56.837Z,6.80
2023-04-04T14:12:37.656Z,6.10
2023-04-04T14:15:11.790Z,5.90
2023-04-04T14:17:50.338Z,5.90
2023-04-04T14:20:22.367Z,6.40
2023-04-04T14:22:57.995Z,4.80
2023-04-04T14:25:32.136Z,6.10
2023-04-04T14:28:06.529Z,8.40
2023-04-04T14:30:37.630Z,5.60
2023-04-04T14:33:11.348Z,6.20
2023-04-04T14:36:02.679Z,4.90
2023-04-04T14:38:47.104Z,5.20
2023-04-04T14:41:18.727Z,5.40
2023-04-04T14:43:52.922Z,5.00
2023-04-04T14:46:28.142Z,7.80
2023-04-04T14:49:23.427Z,7.80
2023-04-04T14:52:03.018Z,6.90
2023-04-04T14:54:36.648Z,6.80
2023-04-04T14:57:13.114Z,6.10
2023-04-04T14:59:56.613Z,5.40
2023-04-04T15:02:51.433Z,6.70
2023-04-04T15:05:45.519Z,7.70
2023-04-04T15:08:24.269Z,7.50
2023-04-04T15:11:12.995Z,7.20
2023-04-04T15:14:18.097Z,6.20
2023-04-04T15:17:08.708Z,5.70
2023-04-04T15:19:54.862Z,6.10
2023-04-04T15:22:43.860Z,6.10
2023-04-04T15:25:18.390Z,15.10
2023-04-04T15:27:53.504Z,11.60
2023-04-04T15:33:21.609Z,8.30
2023-04-04T15:36:18.783Z,7.00
2023-04-04T15:38:57.049Z,5.80
2023-04-04T15:41:34.808Z,6.20
2023-04-04T15:44:09.669Z,7.00
2023-04-04T15:46:51.469Z,7.40
2023-04-04T15:49:28.769Z,6.70
2023-04-04T15:52:00.682Z,7.80
2023-04-04T15:54:42.018Z,8.80
2023-04-04T15:57:22.273Z,6.50
2023-04-04T16:00:01.092Z,7.80
2023-04-04T16:02:40.686Z,7.90
2023-04-04T16:05:19.843Z,9.20
2023-04-04T16:07:54.308Z,9.00
2023-04-04T16:10:47.017Z,9.30
2023-04-04T16:13:53.145Z,14.20
2023-04-04T16:16:47.614Z,12.40
2023-04-04T16:19:25.638Z,13.90
2023-04-04T16:22:15.361Z,11.50
2023-04-04T16:24:57.514Z,13.20
2023-04-04T16:27:40.292Z,13.00
2023-04-04T16:30:43.193Z,11.60
2023-04-04T16:33:39.386Z,8.10
2023-04-04T16:36:17.784Z,10.60
2023-04-04T16:39:02.590Z,15.20
2023-04-04T16:41:35.052Z,20.20
2023-04-04T16:44:13.646Z,9.40
2023-04-04T16:46:50.664Z,7.60
2023-04-04T16:49:32.655Z,8.30
2023-04-04T16:52:23.700Z,13.60
2023-04-04T16:55:18.635Z,11.10
2023-04-04T16:57:59.184Z,10.50
2023-04-04T17:01:24.085Z,10.10
2023-04-04T17:03:41.405Z,9.80
2023-04-04T17:06:30.893Z,9.20
2023-04-04T17:09:14.301Z,11.10
2023-04-04T17:11:57.313Z,9.90
2023-04-04T17:14:41.519Z,8.60
2023-04-04T17:17:19.200Z,10.20
2023-04-04T17:20:00.412Z,14.70
2023-04-04T17:22:51.321Z,25.30
2023-04-04T17:26:19.070Z,31.20
2023-04-04T17:29:48.758Z,29.40
2023-04-04T17:32:35.491Z,30.70
2023-04-04T17:35:09.771Z,28.10
2023-04-04T17:37:45.700Z,27.20
2023-04-04T17:40:26.931Z,29.40
2023-04-04T17:43:06.623Z,23.10
2023-04-04T17:46:21.704Z,17.20
2023-04-04T17:49:03.160Z,13.50
2023-04-04T17:51:48.363Z,13.20
2023-04-04T17:54:26.475Z,11.80
2023-04-04T17:57:03.815Z,10.70
2023-04-04T17:59:48.561Z,13.10
2023-04-04T18:02:20.929Z,12.20
2023-04-04T18:05:01.075Z,12.80
2023-04-04T18:07:41.539Z,14.50
2023-04-04T18:10:12.272Z,14.60
2023-04-04T18:12:44.996Z,13.90
2023-04-04T18:15:16.056Z,16.40
2023-04-04T18:17:47.307Z,14.00
2023-04-04T18:20:31.778Z,14.80
2023-04-04T18:23:09.967Z,16.00
2023-04-04T18:25:40.859Z,14.80
2023-04-04T18:28:17.164Z,14.30
2023-04-04T18:30:59.568Z,13.60
2023-04-04T18:33:31.260Z,15.30
2023-04-04T18:37:27.964Z,14.40
2023-04-04T18:40:08.702Z,18.50
2023-04-04T18:42:43.953Z,14.40
2023-04-04T18:45:14.656Z,13.70
2023-04-04T18:47:44.901Z,17.00
2023-04-04T18:50:15.934Z,21.80
2023-04-04T18:52:46.309Z,25.60
2023-04-04T18:55:16.245Z,38.50
2023-04-04T18:57:48.982Z,42.40
2023-04-04T19:00:20.659Z,39.10
2023-04-04T19:03:11.885Z,38.10
2023-04-04T19:05:49.824Z,33.70
2023-04-04T19:08:20.993Z,33.20
2023-04-04T19:10:57.668Z,29.00
2023-04-04T19:13:30.567Z,23.10
2023-04-04T19:16:20.943Z,19.70
2023-04-04T19:19:23.063Z,21.00
2023-04-04T19:21:58.122Z,21.30
2023-04-04T19:24:42.746Z,19.00
2023-04-04T19:27:14.911Z,22.00
2023-04-04T19:29:50.550Z,19.00
2023-04-04T19:32:32.097Z,18.10
2023-04-04T19:35:03.037Z,16.80
2023-04-04T19:37:32.844Z,15.80
2023-04-04T19:40:40.022Z,16.40
2023-04-04T19:43:22.213Z,16.00
2023-04-04T19:46:05.788Z,18.40
2023-04-04T19:48:59.362Z,15.00
2023-04-04T19:52:12.526Z,15.40
2023-04-04T19:54:51.645Z,14.60
2023-04-04T19:57:28.312Z,14.60
2023-04-04T20:00:34.326Z,16.40
2023-04-04T20:03:35.732Z,16.30
2023-04-04T20:06:28.996Z,26.40
2023-04-04T20:09:10.217Z,20.20
2023-04-04T20:11:49.851Z,18.40
2023-04-04T20:14:29.443Z,13.50
2023-04-04T20:17:02.391Z,14.10
2023-04-04T20:19:37.036Z,15.70
2023-04-04T20:22:17.317Z,14.50
2023-04-04T20:24:48.897Z,14.80
2023-04-04T20:27:27.935Z,15.40
2023-04-04T20:30:13.814Z,16.10
2023-04-04T20:32:47.430Z,16.40
2023-04-04T20:35:32.794Z,19.70
2023-04-04T20:38:08.538Z,19.20
2023-04-04T20:40:57.492Z,18.80
2023-04-04T20:43:31.486Z,18.10
2023-04-04T20:46:07.374Z,15.60
2023-04-04T20:48:41.988Z,18.30
2023-04-04T20:51:33.827Z,20.60
2023-04-04T20:54:08.402Z,18.60
2023-04-04T20:56:52.900Z,17.50
2023-04-04T20:59:44.029Z,18.00
2023-04-04T21:02:24.869Z,16.70
2023-04-04T21:04:56.045Z,15.40
2023-04-04T21:07:46.334Z,16.60
2023-04-04T21:10:33.181Z,17.50
2023-04-04T21:13:13.458Z,16.90
2023-04-04T21:15:48.303Z,19.50
2023-04-04T21:18:40.911Z,19.90
2023-04-04T21:21:59.960Z,21.30
2023-04-04T21:24:49.049Z,17.20
2023-04-04T21:27:39.641Z,15.60
2023-04-04T21:30:46.741Z,15.10
2023-04-04T21:33:20.049Z,12.40
2023-04-04T21:36:01.012Z,11.30
2023-04-04T21:38:35.933Z,11.00
2023-04-04T21:41:27.252Z,12.30
2023-04-04T21:44:13.720Z,12.70
2023-04-04T21:47:00.358Z,12.00
2023-04-04T21:49:42.269Z,11.60
2023-04-04T21:56:12.204Z,12.50
2023-04-04T21:59:11.241Z,13.80
2023-04-04T22:03:36.961Z,12.60
2023-04-04T22:12:40.007Z,14.10
2023-04-04T22:16:31.611Z,14.70
2023-04-04T22:54:39.112Z,21.10
2023-04-04T22:57:51.948Z,20.00
2023-04-04T23:00:36.494Z,20.90
2023-04-04T23:03:24.124Z,18.60
2023-04-04T23:06:17.046Z,20.90
2023-04-04T23:09:27.959Z,19.70
2023-04-04T23:12:11.567Z,21.80
2023-04-04T23:14:52.410Z,23.70
2023-04-04T23:17:31.233Z,27.20
2023-04-04T23:20:29.292Z,28.50
2023-04-04T23:23:02.855Z,27.40
2023-04-04T23:31:22.499Z,30.50
2023-04-04T23:35:20.860Z,33.50
2023-04-04T23:38:00.300Z,30.90
2023-04-04T23:40:35.236Z,31.30
2023-04-04T23:43:08.066Z,33.70
2023-04-04T23:45:46.572Z,36.30
2023-04-04T23:48:33.067Z,38.70
2023-04-04T23:51:15.526Z,39.80
2023-04-04T23:53:51.095Z,39.50
2023-04-04T23:56:23.859Z,40.10
2023-04-04T23:58:58.967Z,37.10
